• Join FlightAware (Why Join?)
  • Login
  • US Flag 
02:22PM EDT


 

Airport Tracker/Info


-or-


 

Live Flight TrackerFlight Track Log ✈ UAL289 ✈ 26-Apr-2013 ✈ KLGA - KORD

Flight Track Log - Related Links

Times and Time Zones

All times are in EDT time to prevent confusion due to time zone crossing. See the UAL289 flight status page for this flight to view local times or setup timezone preferences in your user account.

Time Position Orientation Groundspeed Altitude Reporting Facility
EDT Latitude Longitude Course Direction KTS MPH feet Rate Location/Type
02:02PM 40.8000 -73.8667 270° West 149 171 1,000  Level New York TRACON
02:03PM 40.8706 -73.8033 34° Northeast 240 276 4,800 2,820 Climbing New York Center
02:04PM 40.9149 -74.1963 304° West  Level FlightAware Approximate
02:04PM 40.9342 -73.8475 332° Northwest 222 255 8,600  Level New York Center
02:05PM 40.9695 -74.3056 304° West  Level FlightAware Approximate
02:05PM 40.9781 -73.9208 308° West 251 289 11,300  Level New York Center
02:06PM 41.0191 -74.4191 299° West  Level FlightAware Approximate
02:06PM 41.0142 -74.0408 292° West 297 342 13,000  Level New York Center
02:07PM 41.0667 -74.5341 270° West  Level FlightAware Approximate
02:07PM 41.0339 -74.1544 283° West 346 398 15,600  Level New York Center
02:08PM 41.0631 -74.2989 285° West 365 420 16,000 420 Climbing New York Center
02:09PM 41.0861 -74.4297 283° West 365 420 16,500 1,380 Climbing New York Center
02:10PM 41.1111 -74.5603 284° West 365 420 18,800 1,980 Climbing New York Center
02:11PM 41.1364 -74.6831 285° West 372 428 20,500 1,740 Climbing New York Center
02:12PM 41.1864 -74.8072 298° West 372 428 22,400 1,680 Climbing New York Center
02:13PM 41.2403 -74.9372 299° West 379 436 24,000 1,320 Climbing New York Center
02:14PM 41.2981 -75.0681 300° West 406 467 25,100 1,500 Climbing New York Center
02:15PM 41.3556 -75.2014 300° West 412 474 27,000 1,980 Climbing New York Center
02:16PM 41.4108 -75.3325 299° West 412 474 29,100 1,920 Climbing New York Center
02:17PM 41.4664 -75.4581 301° West 407 468 30,900 1,920 Climbing New York Center
02:18PM 41.5089 -75.5939 293° West 407 468 33,000 1,620 Climbing New York Center
02:19PM 41.5453 -75.7239 291° West 387 445 34,200 1,020 Climbing New York Center
02:20PM 41.5742 -75.8261 291° West 377 434 35,100 900 Climbing New York Center
02:21PM 41.6250 -76.0019 291° West 383 441 36,000 420 Climbing New York Center
02:22PM 41.6608 -76.1325 290° West 383 441 36,000  Level New York Center
02:23PM 41.6983 -76.2686 290° West 383 441 36,000  Level New York Center
02:24PM 41.7358 -76.3997 291° West 383 441 36,000  Level New York Center
02:25PM 41.7675 -76.5219 289° West 388 447 36,000  Level New York Center
02:26PM 41.8047 -76.6561 290° West 383 441 36,000  Level New York Center
02:27PM 41.8439 -76.7875 292° West 383 441 36,000  Level New York Center
02:28PM 41.8806 -76.9275 289° West 388 447 36,000  Level New York Center
02:31PM 42.0006 -77.3669 290° West 390 449 36,000  Level Cleveland Center
02:32PM 42.0375 -77.5050 290° West 383 441 36,000  Level Cleveland Center
02:33PM 42.0725 -77.6431 289° West 389 448 36,000  Level Cleveland Center
02:34PM 42.1092 -77.7786 290° West 389 448 36,000  Level Cleveland Center
02:35PM 42.1436 -77.9144 289° West 389 448 36,000  Level Cleveland Center
02:36PM 42.1803 -78.0528 290° West 389 448 36,000  Level Cleveland Center
02:37PM 42.2119 -78.1722 290° West 389 448 36,000  Level Cleveland Center
02:38PM 42.2481 -78.3083 290° West 384 442 36,000  Level Cleveland Center
02:39PM 42.2819 -78.4475 288° West 384 442 36,000  Level Cleveland Center
02:40PM 42.3178 -78.5839 290° West 384 442 36,000  Level Cleveland Center
02:41PM 42.3536 -78.7203 290° West 384 442 36,000  Level Cleveland Center
02:42PM 42.3889 -78.8572 289° West 384 442 36,000  Level Cleveland Center
02:43PM 42.4267 -79.0108 288° West 384 442 36,000  Level Cleveland Center
02:44PM 42.4531 -79.1172 289° West 384 442 36,000  Level Cleveland Center
02:45PM 42.4883 -79.2711 287° West 384 442 36,000  Level Cleveland Center
02:46PM 42.5022 -79.4117 278° West 384 442 36,000  Level Cleveland Center
02:47PM 42.5056 -79.5553 272° West 384 442 36,000  Level Cleveland Center
02:48PM 42.5131 -79.7017 274° West 384 442 36,000  Level Cleveland Center
02:49PM 42.5225 -79.8422 275° West 384 442 36,000  Level Cleveland Center
02:50PM 42.5233 -80.0028 270° West 384 442 36,000  Level Cleveland Center
02:51PM 42.5303 -80.1353 274° West 384 442 36,000  Level Cleveland Center
02:52PM 42.5389 -80.2789 275° West 384 442 36,000  Level Cleveland Center
02:53PM 42.5433 -80.4197 273° West 378 435 36,000  Level Cleveland Center
02:54PM 42.5497 -80.5606 274° West 383 441 36,000  Level Cleveland Center
02:55PM 42.5539 -80.6986 272° West 378 435 36,000  Level Cleveland Center
02:56PM 42.5600 -80.8425 273° West 378 435 36,000  Level Cleveland Center
02:57PM 42.5636 -80.9864 272° West 388 447 36,000  Level Cleveland Center
02:58PM 42.5694 -81.1358 273° West 377 434 36,000  Level Cleveland Center
02:59PM 42.5747 -81.2794 273° West 383 441 36,000  Level Cleveland Center
03:00PM 42.5800 -81.4261 273° West 383 441 36,000  Level Cleveland Center
03:01PM 42.6019 -81.5647 282° West 388 447 36,000  Level Cleveland Center
03:02PM 42.6256 -81.7033 283° West 388 447 36,000  Level Cleveland Center
03:03PM 42.6492 -81.8394 283° West 382 440 36,000  Level Cleveland Center
03:04PM 42.6747 -81.9783 284° West 377 434 36,000  Level Cleveland Center
03:05PM 42.7000 -82.1200 284° West 377 434 36,000  Level Cleveland Center
03:06PM 42.7231 -82.2592 283° West 377 434 36,000  Level Cleveland Center
03:07PM 42.7481 -82.4039 283° West 377 434 36,000  Level Cleveland Center
03:08PM 42.7706 -82.5461 282° West 382 440 36,000  Level Cleveland Center
03:09PM 42.7953 -82.6856 284° West 382 440 36,000  Level Cleveland Center
03:10PM 42.8178 -82.8250 282° West 382 440 36,000  Level Cleveland Center
03:11PM 42.8233 -82.9553 273° West 382 440 36,000  Level Cleveland Center
03:12PM 42.8289 -83.0942 273° West 382 440 36,000  Level Cleveland Center
03:13PM 42.8339 -83.2389 273° West 382 440 36,000  Level Cleveland Center
03:14PM 42.8408 -83.3836 274° West 387 445 36,000  Level Cleveland Center
03:15PM 42.8478 -83.5256 274° West 387 445 36,000  Level Cleveland Center
03:16PM 42.8525 -83.6675 273° West 387 445 36,000  Level Cleveland Center
03:17PM 42.8569 -83.8094 272° West 382 440 36,000  Level Cleveland Center
03:18PM 42.8633 -83.9483 274° West 382 440 36,000  Level Cleveland Center
03:19PM 42.8675 -84.0875 272° West 382 440 36,000 -1,260 Level Cleveland Center
03:22PM 42.8786 -84.4006 273° West 368 423 31,900 -1,800 Descending Chicago Center
03:23PM 42.8831 -84.5397 273° West 369 425 30,000 -960 Descending Chicago Center
03:24PM 42.8700 -84.7175 264° West 391 450 30,000  Level Chicago Center
03:25PM 42.8547 -84.8631 262° West 389 448 30,000  Level Chicago Center
03:26PM 42.8392 -85.0097 262° West 391 450 30,000  Level Chicago Center
03:27PM 42.8228 -85.1608 262° West 399 459 30,000  Level Chicago Center
03:28PM 42.8067 -85.3136 262° West 406 467 30,000 -240 Level Chicago Center
03:29PM 42.7897 -85.4658 261° West 406 467 29,600 -1,080 Descending Chicago Center
03:30PM 42.7650 -85.6175 258° West 408 470 27,800 -2,040 Descending Chicago Center
03:31PM 42.7325 -85.7958 256° West 405 466 25,500 -2,100 Descending Chicago Center
03:32PM 42.7067 -85.9408 256° West 395 455 23,500 -1,920 Descending Chicago Center
03:33PM 42.6797 -86.0842 256° West 390 449 21,500 -1,740 Descending Chicago Center
03:34PM 42.6547 -86.2261 257° West 386 444 20,000 -780 Descending Chicago Center
03:35PM 42.6267 -86.3686 255° West 387 445 20,000 -240 Level Chicago Center
03:36PM 42.6003 -86.5103 256° West 388 447 19,600 -1,260 Descending Chicago Center
03:37PM 42.5742 -86.6475 256° West 378 435 17,400 -2,160 Descending Chicago Center
03:38PM 42.5394 -86.8072 254° West 369 425 15,200 -2,160 Descending Chicago Center
03:39PM 42.5064 -86.9275 250° West 344 396 13,000 -2,280 Descending Chicago Center
03:40PM 42.4739 -87.0439 249° West 334 384 10,500 -1,500 Descending Chicago Center
03:41PM 42.4411 -87.1589 249° West 330 380 10,000 -720 Descending Chicago Center
03:42PM 42.4169 -87.2511 250° West 263 303 9,100 -840 Descending Chicago Center
03:43PM 42.3903 -87.3397 248° West 257 296 8,300 -780 Descending Chicago Center
03:45PM 42.3578 -87.4400 246° West 237 273 7,500 -660 Descending Chicago Center
03:46PM 42.3364 -87.5083 247° West 205 236 7,000 -300 Descending Chicago Center
03:47PM 42.3019 -87.5519 223° Southwest 205 236 7,000 -60 Level Chicago Center
03:48PM 42.2611 -87.6053 224° Southwest 170 196 6,900 -540 Descending Chicago Center
03:49PM 42.2272 -87.6431 220° Southwest 161 185 6,000 -960 Descending Chicago Center
03:50PM 42.1947 -87.6772 218° Southwest 152 175 5,000 -540 Descending Chicago Center
03:51PM 42.1622 -87.7128 219° Southwest 151 174 4,900 -540 Descending Chicago Center
03:52PM 42.1231 -87.7569 220° Southwest 153 176 3,900 -900 Descending Chicago Center
03:53PM 42.0906 -87.7950 221° Southwest 154 177 3,100 -780 Descending Chicago Center